Terminal Aerodrome Forecast
Issued by NWS Albuquerque, NM

Home | Current Version | Previous Version | Text Only | Print | Product List | Glossary On
Versions: 1 2 3 4 5 6 7 8 9 10 11 12
000
FTUS45 KABQ 211131
TAFABQ
TAF
KABQ 211131Z 2112/2212 15005KT P6SM SKC
     FM211800 22012G20KT P6SM SKC
     FM212100 20018G30KT P6SM FEW100
     FM220200 18015KT P6SM FEW100
     FM220700 15008KT P6SM FEW090=

USA.gov is the U.S. government's official web portal to all federal, state and local government web resources and services.